createdAt,value
2023-09-21T00:01:00.103Z,99791.27
2023-09-21T00:03:29.510Z,99792.98
2023-09-21T00:05:57.812Z,99789.71
2023-09-21T00:08:26.317Z,99787.77
2023-09-21T00:10:55.003Z,99781.17
2023-09-21T00:13:27.650Z,99778.24
2023-09-21T00:15:55.937Z,99779.57
2023-09-21T00:18:24.082Z,99773.93
2023-09-21T00:20:54.327Z,99769.93
2023-09-21T00:23:23.821Z,99770.59
2023-09-21T00:25:55.612Z,99765.67
2023-09-21T00:28:23.500Z,99760.20
2023-09-21T00:30:57.708Z,99759.02
2023-09-21T00:33:26.178Z,99755.10
2023-09-21T00:35:54.193Z,99758.84
2023-09-21T00:38:24.918Z,99751.63
2023-09-21T00:40:58.863Z,99746.87
2023-09-21T00:43:27.759Z,99743.66
2023-09-21T00:45:57.684Z,99738.85
2023-09-21T00:48:33.901Z,99736.67
2023-09-21T00:51:05.840Z,99733.56
2023-09-21T00:53:34.734Z,99734.31
2023-09-21T00:56:09.488Z,99733.98
2023-09-21T00:58:39.956Z,99730.13
2023-09-21T01:01:09.443Z,99726.91
2023-09-21T01:03:38.981Z,99726.90
2023-09-21T01:06:08.236Z,99725.46
2023-09-21T01:08:36.281Z,99723.84
2023-09-21T01:11:09.750Z,99721.68
2023-09-21T01:13:38.167Z,99719.86
2023-09-21T01:16:07.380Z,99718.33
2023-09-21T01:18:35.426Z,99721.39
2023-09-21T01:21:08.602Z,99716.30
2023-09-21T01:23:40.442Z,99712.30
2023-09-21T01:26:08.421Z,99711.45
2023-09-21T01:28:37.592Z,99708.14
2023-09-21T01:31:06.264Z,99707.24
2023-09-21T01:33:34.399Z,99707.13
2023-09-21T01:36:04.088Z,99706.78
2023-09-21T01:38:31.831Z,99706.28
2023-09-21T01:41:00.823Z,99704.33
2023-09-21T01:43:28.861Z,99703.88
2023-09-21T01:45:56.827Z,99697.70
2023-09-21T01:48:24.788Z,99694.98
2023-09-21T01:50:53.141Z,99694.58
2023-09-21T01:53:23.142Z,99689.05
2023-09-21T01:55:51.756Z,99685.79
2023-09-21T01:58:23.892Z,99682.55
2023-09-21T02:00:52.510Z,99683.85
2023-09-21T02:03:25.510Z,99681.93
2023-09-21T02:05:53.531Z,99681.42
2023-09-21T02:08:21.428Z,99677.63
2023-09-21T02:10:50.930Z,99675.37
2023-09-21T02:13:19.787Z,99675.25
2023-09-21T02:15:51.911Z,99674.23
2023-09-21T02:18:20.029Z,99668.12
2023-09-21T02:20:51.619Z,99666.72
2023-09-21T02:23:21.623Z,99668.11
2023-09-21T02:25:48.733Z,99663.43
2023-09-21T02:28:16.438Z,99664.30
2023-09-21T02:30:46.892Z,99663.31
2023-09-21T02:33:16.503Z,99661.16
2023-09-21T02:35:47.224Z,99658.08
2023-09-21T02:38:20.614Z,99657.31
2023-09-21T02:40:48.506Z,99655.99
2023-09-21T02:43:17.291Z,99649.53
2023-09-21T02:45:45.703Z,99651.17
2023-09-21T02:48:15.186Z,99649.13
2023-09-21T02:50:43.706Z,99645.15
2023-09-21T02:53:12.677Z,99645.08
2023-09-21T02:55:43.027Z,99643.75
2023-09-21T02:58:13.258Z,99642.25
2023-09-21T03:00:43.294Z,99638.27
2023-09-21T03:03:13.215Z,99635.73
2023-09-21T03:05:41.651Z,99630.54
2023-09-21T03:08:13.515Z,99630.13
2023-09-21T03:10:41.514Z,99627.65
2023-09-21T03:13:16.330Z,99628.80
2023-09-21T03:15:45.333Z,99629.23
2023-09-21T03:18:16.329Z,99621.06
2023-09-21T03:20:45.196Z,99621.99
2023-09-21T03:23:14.774Z,99618.28
2023-09-21T03:25:44.510Z,99621.35
2023-09-21T03:28:14.091Z,99615.50
2023-09-21T03:30:42.281Z,99613.55
2023-09-21T03:33:11.216Z,99610.23
2023-09-21T03:35:39.907Z,99610.33
2023-09-21T03:38:11.344Z,99609.88
2023-09-21T03:40:39.400Z,99605.23
2023-09-21T03:43:10.380Z,99603.73
2023-09-21T03:45:39.238Z,99599.67
2023-09-21T03:48:09.300Z,99591.44
2023-09-21T03:50:37.586Z,99596.23
2023-09-21T03:53:06.069Z,99595.55
2023-09-21T03:55:34.620Z,99592.02
2023-09-21T03:58:03.952Z,99591.59
2023-09-21T04:00:37.048Z,99595.39
2023-09-21T04:03:08.095Z,99586.58
2023-09-21T04:05:38.033Z,99587.34
2023-09-21T04:08:07.215Z,99586.06
2023-09-21T04:10:36.614Z,99589.80
2023-09-21T04:13:05.692Z,99586.59
2023-09-21T04:15:33.796Z,99586.27
2023-09-21T04:18:03.073Z,99583.05
2023-09-21T04:20:34.709Z,99579.91
2023-09-21T04:23:02.637Z,99576.77
2023-09-21T04:25:30.566Z,99572.13
2023-09-21T04:27:58.518Z,99570.27
2023-09-21T04:30:25.600Z,99569.92
2023-09-21T04:32:55.904Z,99571.57
2023-09-21T04:35:24.062Z,99567.38
2023-09-21T04:37:51.888Z,99565.45
2023-09-21T04:40:19.726Z,99565.41
2023-09-21T04:42:49.059Z,99562.77
2023-09-21T04:45:19.100Z,99557.61
2023-09-21T04:47:49.523Z,99563.78
2023-09-21T04:50:18.276Z,99567.14
2023-09-21T04:52:48.529Z,99567.25
2023-09-21T04:55:17.089Z,99566.32
2023-09-21T04:57:46.082Z,99566.23
2023-09-21T05:00:16.169Z,99564.85
2023-09-21T05:02:45.741Z,99564.36
2023-09-21T05:05:16.052Z,99563.11
2023-09-21T05:07:43.995Z,99564.70
2023-09-21T05:10:12.754Z,99559.34
2023-09-21T05:12:40.748Z,99561.65
2023-09-21T05:15:14.431Z,99558.70
2023-09-21T05:17:42.378Z,99553.81
2023-09-21T05:20:11.572Z,99551.52
2023-09-21T05:22:40.486Z,99550.77
2023-09-21T05:25:09.794Z,99551.86
2023-09-21T05:27:37.992Z,99549.23
2023-09-21T05:30:09.829Z,99545.80
2023-09-21T05:32:38.674Z,99542.67
2023-09-21T05:35:09.465Z,99542.91
2023-09-21T05:37:37.908Z,99542.98
2023-09-21T05:40:11.743Z,99540.30
2023-09-21T05:42:39.787Z,99542.35
2023-09-21T05:45:09.799Z,99544.09
2023-09-21T05:47:38.039Z,99548.80
2023-09-21T05:50:08.617Z,99549.80
2023-09-21T05:52:37.176Z,99546.36
2023-09-21T05:55:06.658Z,99543.18
2023-09-21T05:57:34.740Z,99540.28
2023-09-21T06:00:02.697Z,99541.73
2023-09-21T06:02:30.546Z,99538.63
2023-09-21T06:04:58.469Z,99539.40
2023-09-21T06:07:27.547Z,99537.17
2023-09-21T06:09:55.506Z,99538.94
2023-09-21T06:12:26.152Z,99535.53
2023-09-21T06:14:56.598Z,99536.25
2023-09-21T06:17:24.944Z,99534.22
2023-09-21T06:19:53.693Z,99538.63
2023-09-21T06:22:21.379Z,99538.08
2023-09-21T06:24:48.260Z,99534.20
2023-09-21T06:27:16.181Z,99529.67
2023-09-21T06:29:45.324Z,99523.64
2023-09-21T06:32:13.981Z,99522.04
2023-09-21T06:34:42.985Z,99517.60
2023-09-21T06:37:11.395Z,99518.20
2023-09-21T06:39:39.121Z,99515.20
2023-09-21T06:42:06.502Z,99510.81
2023-09-21T06:44:33.422Z,99506.86
2023-09-21T06:47:01.443Z,99507.54
2023-09-21T06:49:30.015Z,99507.06
2023-09-21T06:51:59.229Z,99502.45
2023-09-21T06:54:28.572Z,99499.85
2023-09-21T06:57:04.079Z,99494.36
2023-09-21T06:59:34.588Z,99489.48
2023-09-21T07:02:05.349Z,99494.89
2023-09-21T07:04:34.574Z,99496.90
2023-09-21T07:07:05.589Z,99502.69
2023-09-21T07:09:34.828Z,99501.40
2023-09-21T07:12:03.780Z,99499.13
2023-09-21T07:14:33.477Z,99499.39
2023-09-21T07:17:01.209Z,99501.92
2023-09-21T07:19:29.730Z,99505.05
2023-09-21T07:21:57.459Z,99502.27
2023-09-21T07:24:25.692Z,99507.72
2023-09-21T07:26:54.320Z,99505.84
2023-09-21T07:29:23.728Z,99502.92
2023-09-21T07:31:52.055Z,99502.17
2023-09-21T07:34:20.009Z,99497.71
2023-09-21T07:36:47.785Z,99497.73
2023-09-21T07:39:16.929Z,99494.39
2023-09-21T07:41:46.977Z,99493.69
2023-09-21T07:44:16.861Z,99491.95
2023-09-21T07:46:44.955Z,99492.21
2023-09-21T07:49:13.937Z,99489.69
2023-09-21T07:51:41.687Z,99483.63
2023-09-21T07:54:09.536Z,99478.50
2023-09-21T07:56:37.691Z,99477.89
2023-09-21T07:59:10.232Z,99478.64
2023-09-21T08:01:38.178Z,99476.02
2023-09-21T08:04:07.947Z,99474.53
2023-09-21T08:06:35.751Z,99475.81
2023-09-21T08:11:33.657Z,99475.44
2023-09-21T08:14:03.336Z,99475.58
2023-09-21T08:16:33.144Z,99471.77
2023-09-21T08:19:01.875Z,99469.83
2023-09-21T08:21:30.770Z,99461.77
2023-09-21T08:23:58.635Z,99461.30
2023-09-21T08:26:26.524Z,99463.11
2023-09-21T08:28:54.386Z,99459.91
2023-09-21T08:31:22.171Z,99459.53
2023-09-21T08:33:50.336Z,99458.50
2023-09-21T08:36:18.214Z,99457.07
2023-09-21T08:38:46.296Z,99451.61
2023-09-21T08:41:14.336Z,99450.66
2023-09-21T08:43:43.419Z,99448.20
2023-09-21T08:46:12.350Z,99452.03
2023-09-21T08:48:41.726Z,99450.64
2023-09-21T08:51:12.146Z,99444.19
2023-09-21T08:53:42.723Z,99446.55
2023-09-21T08:56:11.943Z,99444.86
2023-09-21T08:58:41.940Z,99445.42
2023-09-21T09:01:11.748Z,99449.58
2023-09-21T09:03:40.988Z,99450.98
2023-09-21T09:06:09.066Z,99447.09
2023-09-21T09:08:36.855Z,99446.53
2023-09-21T09:11:04.745Z,99442.26
2023-09-21T09:13:33.567Z,99442.48
2023-09-21T09:16:01.534Z,99445.91
2023-09-21T09:18:29.534Z,99449.18
2023-09-21T09:20:57.564Z,99448.20
2023-09-21T09:23:25.792Z,99453.56
2023-09-21T09:25:55.498Z,99452.80
2023-09-21T09:28:24.389Z,99449.85
2023-09-21T09:30:53.696Z,99445.83
2023-09-21T09:33:26.252Z,99442.17
2023-09-21T09:35:54.340Z,99432.13
2023-09-21T09:38:22.673Z,99430.30
2023-09-21T09:40:51.267Z,99430.16
2023-09-21T09:43:21.249Z,99431.02
2023-09-21T09:45:51.472Z,99426.10
2023-09-21T09:48:24.088Z,99422.13
2023-09-21T09:50:55.790Z,99421.92
2023-09-21T09:53:26.012Z,99419.47
2023-09-21T09:55:56.366Z,99420.95
2023-09-21T09:58:27.448Z,99419.75
2023-09-21T10:00:57.349Z,99420.19
2023-09-21T10:03:26.427Z,99422.08
2023-09-21T10:05:55.317Z,99419.42
2023-09-21T10:08:26.193Z,99420.01
2023-09-21T10:10:58.519Z,99413.34
2023-09-21T10:13:27.542Z,99414.58
2023-09-21T10:16:01.795Z,99415.55
2023-09-21T10:18:37.220Z,99409.66
2023-09-21T10:21:23.933Z,99409.98
2023-09-21T10:24:07.089Z,99402.08
2023-09-21T10:26:38.783Z,99403.77
2023-09-21T10:29:08.128Z,99406.23
2023-09-21T10:31:40.190Z,99402.35
2023-09-21T10:34:17.415Z,99398.92
2023-09-21T10:36:50.224Z,99403.02
2023-09-21T10:39:26.211Z,99398.45
2023-09-21T10:41:56.563Z,99397.06
2023-09-21T10:44:56.444Z,99399.71
2023-09-21T10:47:31.051Z,99396.18
2023-09-21T10:50:02.959Z,99389.33
2023-09-21T10:52:31.839Z,99393.28
2023-09-21T10:55:00.308Z,99385.12
2023-09-21T10:57:30.556Z,99387.33
2023-09-21T11:00:12.264Z,99388.75
2023-09-21T11:02:41.778Z,99388.35
2023-09-21T11:05:11.559Z,99386.33
2023-09-21T11:07:41.956Z,99383.10
2023-09-21T11:10:11.732Z,99387.13
2023-09-21T11:12:40.671Z,99384.40
2023-09-21T11:15:13.427Z,99378.69
2023-09-21T11:17:43.459Z,99376.17
2023-09-21T11:20:18.305Z,99378.38
2023-09-21T11:22:48.396Z,99381.57
2023-09-21T11:25:20.625Z,99381.02
2023-09-21T11:27:49.130Z,99384.23
2023-09-21T11:30:17.003Z,99378.48
2023-09-21T11:32:46.588Z,99376.05
2023-09-21T11:35:16.937Z,99372.04
2023-09-21T11:37:44.949Z,99367.46
2023-09-21T11:40:13.520Z,99364.60
2023-09-21T11:42:45.002Z,99359.35
2023-09-21T11:45:17.212Z,99357.79
2023-09-21T11:47:49.334Z,99351.94
2023-09-21T11:50:21.588Z,99351.71
2023-09-21T11:52:54.588Z,99354.52
2023-09-21T11:55:24.213Z,99349.48
2023-09-21T11:57:53.452Z,99356.09
2023-09-21T12:00:28.214Z,99356.75
2023-09-21T12:02:57.416Z,99350.58
2023-09-21T12:05:26.771Z,99349.52
2023-09-21T12:07:57.295Z,99344.98
2023-09-21T12:10:25.892Z,99353.17
2023-09-21T12:12:53.891Z,99351.27
2023-09-21T12:15:21.967Z,99352.98
2023-09-21T12:17:50.156Z,99353.35
2023-09-21T12:20:19.013Z,99352.07
2023-09-21T12:22:46.773Z,99353.10
2023-09-21T12:25:15.419Z,99355.19
2023-09-21T12:27:47.900Z,99363.61
2023-09-21T12:30:20.743Z,99375.24
2023-09-21T12:32:50.228Z,99382.33
2023-09-21T12:35:20.124Z,99380.48
2023-09-21T12:37:48.008Z,99381.75
2023-09-21T12:40:16.334Z,99384.11
2023-09-21T12:42:44.347Z,99380.68
2023-09-21T12:45:15.460Z,99391.55
2023-09-21T12:47:43.747Z,99396.50
2023-09-21T12:50:13.004Z,99389.72
2023-09-21T12:52:42.054Z,99384.48
2023-09-21T12:55:11.906Z,99389.44
2023-09-21T12:57:41.826Z,99393.92
2023-09-21T13:00:22.156Z,99405.13
2023-09-21T13:02:50.809Z,99404.86
2023-09-21T13:05:18.890Z,99401.61
2023-09-21T13:15:15.086Z,99397.38
2023-09-21T13:18:31.723Z,99391.84
2023-09-21T13:24:35.532Z,99386.34
2023-09-21T13:27:11.840Z,99381.18
2023-09-21T13:29:49.287Z,99363.50
2023-09-21T13:32:17.321Z,99350.39
2023-09-21T13:34:46.876Z,99345.20
2023-09-21T13:37:14.658Z,99341.48
2023-09-21T13:39:43.317Z,99336.77
2023-09-21T13:42:12.097Z,99336.72
2023-09-21T13:44:40.393Z,99330.10
2023-09-21T13:47:08.371Z,99318.95
2023-09-21T13:49:36.318Z,99321.86
2023-09-21T13:52:04.731Z,99314.35
2023-09-21T13:54:32.725Z,99316.69
2023-09-21T13:57:01.252Z,99309.65
2023-09-21T13:59:29.052Z,99306.82
2023-09-21T14:01:57.007Z,99298.50
2023-09-21T14:04:26.043Z,99295.77
2023-09-21T14:06:54.297Z,99292.85
2023-09-21T14:09:22.271Z,99281.66
2023-09-21T14:11:50.291Z,99282.32
2023-09-21T14:14:18.220Z,99276.24
2023-09-21T14:16:46.887Z,99270.58
2023-09-21T14:19:14.875Z,99263.80
2023-09-21T14:21:42.788Z,99253.67
2023-09-21T14:24:10.921Z,99247.23
2023-09-21T14:26:38.949Z,99238.52
2023-09-21T14:29:06.713Z,99238.74
2023-09-21T14:31:34.764Z,99235.87
2023-09-21T14:34:02.772Z,99231.97
2023-09-21T14:36:30.738Z,99226.88
2023-09-21T14:38:58.817Z,99222.33
2023-09-21T14:41:26.859Z,99216.67
2023-09-21T14:43:58.298Z,99208.06
2023-09-21T14:46:26.140Z,99211.48
2023-09-21T14:48:54.040Z,99210.59
2023-09-21T14:51:22.212Z,99206.48
2023-09-21T14:53:52.257Z,99203.65
2023-09-21T14:56:20.074Z,99199.42
2023-09-21T14:58:48.149Z,99195.92
2023-09-21T15:01:18.081Z,99197.85
2023-09-21T15:03:46.138Z,99200.00
2023-09-21T15:06:14.332Z,99200.40
2023-09-21T15:08:42.125Z,99197.95
2023-09-21T15:11:09.818Z,99195.41
2023-09-21T15:13:39.123Z,99196.13
2023-09-21T15:16:08.418Z,99202.03
2023-09-21T15:18:36.664Z,99202.89
2023-09-21T15:21:04.709Z,99200.73
2023-09-21T15:23:32.533Z,99189.02
2023-09-21T15:26:09.917Z,99182.89
2023-09-21T15:28:45.777Z,99179.69
2023-09-21T15:31:13.813Z,99177.59
2023-09-21T15:33:42.137Z,99171.48
2023-09-21T15:36:10.112Z,99164.63
2023-09-21T15:38:37.957Z,99157.47
2023-09-21T15:41:07.230Z,99146.09
2023-09-21T15:43:34.996Z,99144.98
2023-09-21T15:46:03.093Z,99144.41
2023-09-21T15:48:33.632Z,99144.72
2023-09-21T15:51:02.387Z,99138.63
2023-09-21T15:53:30.656Z,99135.37
2023-09-21T15:56:00.449Z,99131.64
2023-09-21T15:58:30.541Z,99133.36
2023-09-21T16:00:58.475Z,99132.45
2023-09-21T16:03:26.990Z,99132.02
2023-09-21T16:05:54.963Z,99128.41
2023-09-21T16:08:24.505Z,99122.25
2023-09-21T16:10:52.496Z,99125.66
2023-09-21T16:13:20.602Z,99120.55
2023-09-21T16:15:48.553Z,99117.30
2023-09-21T16:18:16.643Z,99112.31
2023-09-21T16:20:44.905Z,99112.47
2023-09-21T16:23:12.852Z,99102.58
2023-09-21T16:25:40.693Z,99094.36
2023-09-21T16:28:08.479Z,99097.06
2023-09-21T16:30:36.327Z,99091.52
2023-09-21T16:33:05.372Z,99094.68
2023-09-21T16:35:36.464Z,99090.73
2023-09-21T16:38:08.276Z,99086.95
2023-09-21T16:40:37.141Z,99081.41
2023-09-21T16:43:05.565Z,99077.61
2023-09-21T16:45:35.315Z,99079.26
2023-09-21T16:48:05.605Z,99072.19
2023-09-21T16:50:34.886Z,99066.62
2023-09-21T16:53:03.384Z,99067.25
2023-09-21T16:55:31.444Z,99063.98
2023-09-21T16:57:59.337Z,99062.49
2023-09-21T17:00:27.399Z,99068.69
2023-09-21T17:02:55.425Z,99071.28
2023-09-21T17:05:23.592Z,99066.42
2023-09-21T17:07:52.405Z,99064.88
2023-09-21T17:10:21.500Z,99067.80
2023-09-21T17:12:50.538Z,99065.62
2023-09-21T17:15:18.909Z,99069.16
2023-09-21T17:17:47.098Z,99067.31
2023-09-21T17:20:15.632Z,99065.40
2023-09-21T17:22:44.823Z,99061.28
2023-09-21T17:25:13.336Z,99051.75
2023-09-21T17:27:43.322Z,99051.11
2023-09-21T17:30:14.364Z,99051.92
2023-09-21T17:32:43.219Z,99050.61
2023-09-21T17:35:11.158Z,99043.04
2023-09-21T17:37:38.955Z,99040.90
2023-09-21T17:40:12.338Z,99038.39
2023-09-21T17:42:45.085Z,99040.52
2023-09-21T17:45:13.796Z,99041.78
2023-09-21T17:47:42.038Z,99039.44
2023-09-21T17:50:10.940Z,99044.78
2023-09-21T17:52:39.127Z,99041.27
2023-09-21T17:55:08.796Z,99041.05
2023-09-21T17:57:37.083Z,99041.86
2023-09-21T18:00:07.829Z,99047.95
2023-09-21T18:02:36.509Z,99055.57
2023-09-21T18:05:05.390Z,99051.34
2023-09-21T18:07:33.400Z,99050.21
2023-09-21T18:10:01.250Z,99053.45
2023-09-21T18:12:29.185Z,99053.73
2023-09-21T18:14:57.535Z,99050.95
2023-09-21T18:17:25.530Z,99047.31
2023-09-21T18:19:55.135Z,99041.95
2023-09-21T18:22:25.119Z,99042.64
2023-09-21T18:24:52.884Z,99045.34
2023-09-21T18:27:20.750Z,99042.70
2023-09-21T18:29:48.919Z,99045.60
2023-09-21T18:32:16.919Z,99046.95
2023-09-21T18:34:45.074Z,99046.02
2023-09-21T18:37:12.990Z,99046.73
2023-09-21T18:39:40.935Z,99040.83
2023-09-21T18:42:09.414Z,99037.50
2023-09-21T18:44:39.527Z,99036.11
2023-09-21T18:47:07.590Z,99034.54
2023-09-21T18:49:35.388Z,99030.77
2023-09-21T18:52:05.242Z,99025.73
2023-09-21T18:54:33.111Z,99018.58
2023-09-21T18:57:02.844Z,99011.88
2023-09-21T18:59:31.151Z,99002.17
2023-09-21T19:02:00.235Z,98999.48
2023-09-21T19:04:28.565Z,98998.48
2023-09-21T19:06:56.520Z,98999.64
2023-09-21T19:09:24.504Z,99005.61
2023-09-21T19:11:52.921Z,98999.05
2023-09-21T19:14:20.665Z,98988.96
2023-09-21T19:16:49.982Z,98994.31
2023-09-21T19:19:20.082Z,98985.90
2023-09-21T19:21:48.601Z,98988.69
2023-09-21T19:24:16.719Z,98985.71
2023-09-21T19:26:44.645Z,98985.83
2023-09-21T19:29:13.286Z,98981.62
2023-09-21T19:31:42.383Z,98980.58
2023-09-21T19:34:10.443Z,98975.25
2023-09-21T19:36:38.536Z,98967.54
2023-09-21T19:39:06.572Z,98964.77
2023-09-21T19:41:34.516Z,98964.08
2023-09-21T19:44:02.939Z,98963.58
2023-09-21T19:46:30.796Z,98960.59
2023-09-21T19:48:59.642Z,98964.95
2023-09-21T19:51:29.420Z,98957.94
2023-09-21T19:53:58.618Z,98954.84
2023-09-21T19:56:26.458Z,98950.45
2023-09-21T19:58:54.572Z,98945.62
2023-09-21T20:01:25.687Z,98941.33
2023-09-21T20:03:53.751Z,98942.48
2023-09-21T20:06:22.024Z,98937.79
2023-09-21T20:08:51.345Z,98938.80
2023-09-21T20:11:19.443Z,98939.66
2023-09-21T20:13:47.363Z,98929.70
2023-09-21T20:16:15.376Z,98923.66
2023-09-21T20:18:43.297Z,98919.73
2023-09-21T20:21:11.376Z,98917.83
2023-09-21T20:23:39.373Z,98911.73
2023-09-21T20:26:07.435Z,98910.92
2023-09-21T20:28:35.265Z,98911.06
2023-09-21T20:31:03.880Z,98903.73
2023-09-21T20:33:31.722Z,98895.63
2023-09-21T20:35:59.585Z,98892.26
2023-09-21T20:38:27.458Z,98882.04
2023-09-21T20:40:55.512Z,98876.29
2023-09-21T20:43:23.365Z,98865.38
2023-09-21T20:45:51.870Z,98860.70
2023-09-21T20:48:19.740Z,98857.73
2023-09-21T20:50:47.838Z,98857.28
2023-09-21T20:53:15.653Z,98855.96
2023-09-21T20:55:43.365Z,98852.18
2023-09-21T20:58:11.469Z,98850.98
2023-09-21T21:00:39.355Z,98850.10
2023-09-21T21:03:07.790Z,98850.39
2023-09-21T21:05:36.500Z,98848.11
2023-09-21T21:08:06.158Z,98846.73
2023-09-21T21:10:34.080Z,98842.58
2023-09-21T21:13:02.239Z,98844.77
2023-09-21T21:15:30.354Z,98845.27
2023-09-21T21:17:58.322Z,98853.83
2023-09-21T21:20:26.379Z,98855.79
2023-09-21T21:22:54.488Z,98859.70
2023-09-21T21:25:22.608Z,98857.02
2023-09-21T21:27:50.489Z,98867.65
2023-09-21T21:30:18.285Z,98965.72
2023-09-21T21:32:46.709Z,99002.77
2023-09-21T21:35:17.449Z,99040.05
2023-09-21T21:37:45.682Z,99052.21
2023-09-21T21:40:15.918Z,99064.89
2023-09-21T21:42:44.177Z,99060.45
2023-09-21T21:45:12.519Z,99048.63
2023-09-21T21:47:41.397Z,99027.05
2023-09-21T21:50:10.553Z,99017.31
2023-09-21T21:52:39.131Z,99009.16
2023-09-21T21:55:08.836Z,98998.52
2023-09-21T21:57:36.748Z,98992.20
2023-09-21T22:00:13.048Z,98991.90
2023-09-21T22:02:40.975Z,98992.39
2023-09-21T22:05:10.370Z,98996.33
2023-09-21T22:07:38.243Z,99002.05
2023-09-21T22:10:08.395Z,99012.17
2023-09-21T22:12:36.593Z,99024.55
2023-09-21T22:15:08.281Z,99030.33
2023-09-21T22:17:36.430Z,99029.96
2023-09-21T22:20:12.916Z,99048.17
2023-09-21T22:22:41.207Z,99068.27
2023-09-21T22:25:10.376Z,99060.55
2023-09-21T22:27:38.252Z,99060.29
2023-09-21T22:30:09.944Z,99054.70
2023-09-21T22:32:38.091Z,99057.21
2023-09-21T22:35:10.331Z,99065.05
2023-09-21T22:37:38.209Z,99066.48
2023-09-21T22:40:09.901Z,99068.75
2023-09-21T22:42:49.148Z,99065.83
2023-09-21T22:45:18.396Z,99063.79
2023-09-21T22:47:46.474Z,99056.13
2023-09-21T22:50:16.456Z,99051.79
2023-09-21T22:52:47.206Z,99057.05
2023-09-21T22:55:17.353Z,99072.41
2023-09-21T22:57:45.976Z,99075.48
2023-09-21T23:00:17.049Z,99060.80
2023-09-21T23:02:45.525Z,99052.85
2023-09-21T23:05:13.662Z,99056.41
2023-09-21T23:07:43.358Z,99061.24
2023-09-21T23:10:13.563Z,99063.07
2023-09-21T23:12:42.421Z,99069.92
2023-09-21T23:15:12.155Z,99078.61
2023-09-21T23:17:41.480Z,99082.45
2023-09-21T23:20:14.486Z,99073.73
2023-09-21T23:22:43.291Z,99084.02
2023-09-21T23:25:11.411Z,99082.36
2023-09-21T23:27:39.918Z,99084.52
2023-09-21T23:30:09.677Z,99084.44
2023-09-21T23:32:37.930Z,99083.36
2023-09-21T23:35:08.060Z,99079.08
2023-09-21T23:37:37.875Z,99079.20
2023-09-21T23:40:08.554Z,99083.78
2023-09-21T23:42:37.166Z,99095.25
2023-09-21T23:45:07.092Z,99099.23
2023-09-21T23:47:34.987Z,99099.05
2023-09-21T23:50:03.434Z,99105.41
2023-09-21T23:52:32.015Z,99115.58
2023-09-21T23:55:00.002Z,99119.81
2023-09-21T23:57:30.917Z,99125.45
2023-09-21T23:59:59.235Z,99113.22
